createdAt,value
2017-12-02T00:01:59.396Z,3.00
2017-12-02T00:04:30.978Z,3.20
2017-12-02T00:07:02.999Z,3.20
2017-12-02T00:09:34.997Z,3.00
2017-12-02T00:12:05.390Z,2.97
2017-12-02T00:14:36.911Z,3.20
2017-12-02T00:17:09.402Z,3.30
2017-12-02T00:19:40.990Z,2.67
2017-12-02T00:22:13.243Z,3.13
2017-12-02T00:24:44.543Z,2.77
2017-12-02T00:27:15.697Z,2.83
2017-12-02T00:29:47.010Z,3.10
2017-12-02T00:32:18.451Z,2.67
2017-12-02T00:34:50.170Z,3.40
2017-12-02T00:37:22.188Z,2.80
2017-12-02T00:39:53.893Z,3.03
2017-12-02T00:42:25.318Z,3.23
2017-12-02T00:44:58.379Z,3.50
2017-12-02T00:47:29.876Z,2.80
2017-12-02T00:50:01.644Z,3.10
2017-12-02T00:52:33.632Z,3.23
2017-12-02T00:55:05.826Z,2.77
2017-12-02T00:57:37.686Z,3.10
2017-12-02T01:00:13.133Z,3.03
2017-12-02T01:02:44.108Z,3.23
2017-12-02T01:05:15.890Z,2.80
2017-12-02T01:07:47.186Z,2.97
2017-12-02T01:10:19.759Z,2.80
2017-12-02T01:12:50.745Z,2.70
2017-12-02T01:15:22.437Z,3.03
2017-12-02T01:17:53.631Z,2.80
2017-12-02T01:20:25.311Z,2.53
2017-12-02T01:22:56.841Z,2.80
2017-12-02T01:25:28.356Z,3.30
2017-12-02T01:27:59.440Z,3.20
2017-12-02T01:30:30.929Z,3.00
2017-12-02T01:33:02.193Z,3.00
2017-12-02T01:35:33.629Z,3.10
2017-12-02T01:38:08.462Z,2.70
2017-12-02T01:40:39.607Z,3.70
2017-12-02T01:43:12.893Z,3.40
2017-12-02T01:45:44.327Z,2.90
2017-12-02T01:48:16.011Z,3.67
2017-12-02T01:50:47.387Z,2.93
2017-12-02T01:53:18.463Z,3.23
2017-12-02T01:55:50.036Z,2.83
2017-12-02T01:58:21.035Z,3.30
2017-12-02T02:00:54.722Z,3.20
2017-12-02T02:03:25.876Z,3.73
2017-12-02T02:05:57.461Z,3.37
2017-12-02T02:08:29.181Z,3.50
2017-12-02T02:11:00.734Z,2.60
2017-12-02T02:13:32.053Z,3.13
2017-12-02T02:16:03.471Z,3.70
2017-12-02T02:18:35.454Z,3.13
2017-12-02T02:21:10.188Z,3.13
2017-12-02T02:23:41.816Z,3.07
2017-12-02T02:26:14.004Z,3.77
2017-12-02T02:28:45.704Z,3.17
2017-12-02T02:31:17.464Z,3.13
2017-12-02T02:33:49.153Z,3.17
2017-12-02T02:36:20.616Z,3.07
2017-12-02T02:38:52.093Z,2.93
2017-12-02T02:41:23.547Z,3.00
2017-12-02T02:43:54.842Z,3.10
2017-12-02T02:46:26.519Z,3.00
2017-12-02T02:48:58.115Z,3.07
2017-12-02T02:51:30.193Z,3.33
2017-12-02T02:54:01.808Z,3.17
2017-12-02T02:56:36.472Z,2.40
2017-12-02T02:59:11.841Z,2.90
2017-12-02T03:01:45.507Z,2.47
2017-12-02T03:04:16.999Z,2.57
2017-12-02T03:06:49.188Z,2.93
2017-12-02T03:09:21.219Z,2.70
2017-12-02T03:11:58.538Z,2.77
2017-12-02T03:14:31.011Z,3.73
2017-12-02T03:17:03.417Z,2.90
2017-12-02T03:19:35.152Z,2.67
2017-12-02T03:22:08.389Z,2.77
2017-12-02T03:24:40.719Z,2.70
2017-12-02T03:27:12.806Z,2.47
2017-12-02T03:29:45.080Z,3.30
2017-12-02T03:32:17.497Z,2.77
2017-12-02T03:34:49.199Z,3.30
2017-12-02T03:37:21.788Z,3.20
2017-12-02T03:39:53.205Z,2.70
2017-12-02T03:42:24.971Z,3.10
2017-12-02T03:44:57.208Z,2.63
2017-12-02T03:47:29.047Z,2.60
2017-12-02T03:50:01.144Z,3.30
2017-12-02T03:52:33.504Z,2.80
2017-12-02T03:55:07.673Z,3.07
2017-12-02T03:57:39.631Z,3.10
2017-12-02T04:00:14.038Z,2.70
2017-12-02T04:02:46.044Z,2.73
2017-12-02T04:05:17.990Z,2.13
2017-12-02T04:07:50.606Z,3.00
2017-12-02T04:10:25.579Z,2.50
2017-12-02T04:12:57.734Z,2.77
2017-12-02T04:15:29.314Z,2.67
2017-12-02T04:18:00.846Z,2.67
2017-12-02T04:20:32.088Z,2.80
2017-12-02T04:23:03.494Z,2.63
2017-12-02T04:25:35.100Z,2.33
2017-12-02T04:28:08.080Z,2.90
2017-12-02T04:30:39.358Z,2.87
2017-12-02T04:33:12.647Z,2.53
2017-12-02T04:35:43.940Z,2.97
2017-12-02T04:38:14.993Z,2.57
2017-12-02T04:40:46.667Z,2.90
2017-12-02T04:43:18.170Z,2.80
2017-12-02T04:45:49.662Z,2.83
2017-12-02T04:48:21.640Z,2.30
2017-12-02T04:50:52.736Z,3.07
2017-12-02T04:53:23.984Z,2.93
2017-12-02T04:55:55.070Z,2.93
2017-12-02T04:58:26.307Z,2.63
2017-12-02T05:00:57.672Z,2.43
2017-12-02T05:03:29.112Z,2.47
2017-12-02T05:06:00.098Z,2.63
2017-12-02T05:08:31.477Z,2.87
2017-12-02T05:11:03.095Z,2.23
2017-12-02T05:13:34.556Z,2.97
2017-12-02T05:16:07.190Z,3.07
2017-12-02T05:18:38.616Z,2.97
2017-12-02T05:21:12.581Z,2.53
2017-12-02T05:23:43.699Z,2.80
2017-12-02T05:26:14.859Z,3.13
2017-12-02T05:28:46.644Z,3.00
2017-12-02T05:31:17.919Z,3.23
2017-12-02T05:33:49.233Z,2.40
2017-12-02T05:36:20.726Z,3.67
2017-12-02T05:38:52.024Z,3.30
2017-12-02T05:41:23.080Z,2.77
2017-12-02T05:43:54.568Z,3.30
2017-12-02T05:46:25.864Z,3.20
2017-12-02T05:48:57.196Z,2.30
2017-12-02T05:51:28.597Z,3.30
2017-12-02T05:54:00.104Z,2.90
2017-12-02T05:56:31.267Z,2.70
2017-12-02T05:59:02.974Z,2.70
2017-12-02T06:01:34.466Z,2.47
2017-12-02T06:04:08.095Z,2.73
2017-12-02T06:06:39.550Z,2.63
2017-12-02T06:09:13.065Z,2.10
2017-12-02T06:11:46.656Z,2.70
2017-12-02T06:14:20.707Z,2.40
2017-12-02T06:16:51.935Z,2.60
2017-12-02T06:19:24.985Z,2.60
2017-12-02T06:21:56.323Z,2.43
2017-12-02T06:24:27.731Z,2.80
2017-12-02T06:26:58.921Z,2.63
2017-12-02T06:29:30.992Z,2.07
2017-12-02T06:32:04.138Z,2.90
2017-12-02T06:34:35.559Z,2.37
2017-12-02T06:37:11.101Z,2.60
2017-12-02T06:39:44.571Z,2.67
2017-12-02T06:42:15.979Z,2.90
2017-12-02T06:44:47.457Z,2.97
2017-12-02T06:47:19.081Z,2.70
2017-12-02T06:49:51.198Z,2.47
2017-12-02T06:52:23.978Z,2.73
2017-12-02T06:54:55.354Z,2.67
2017-12-02T06:57:26.989Z,2.50
2017-12-02T06:59:58.775Z,2.57
2017-12-02T07:02:32.068Z,2.27
2017-12-02T07:05:04.014Z,2.57
2017-12-02T07:07:35.668Z,2.43
2017-12-02T07:10:10.287Z,2.67
2017-12-02T07:12:42.823Z,2.87
2017-12-02T07:15:14.626Z,3.27
2017-12-02T07:17:47.408Z,2.40
2017-12-02T07:20:20.794Z,2.47
2017-12-02T07:22:52.819Z,2.23
2017-12-02T07:26:26.160Z,2.50
2017-12-02T07:28:58.752Z,2.40
2017-12-02T07:31:30.404Z,2.60
2017-12-02T07:34:02.066Z,2.50
2017-12-02T07:36:33.754Z,2.43
2017-12-02T07:39:08.239Z,2.37
2017-12-02T07:41:40.487Z,2.60
2017-12-02T07:44:12.776Z,2.70
2017-12-02T07:46:44.701Z,2.43
2017-12-02T07:49:16.242Z,2.50
2017-12-02T07:51:47.798Z,2.53
2017-12-02T07:54:19.317Z,3.30
2017-12-02T07:56:50.835Z,2.60
2017-12-02T07:59:22.667Z,2.23
2017-12-02T08:01:54.990Z,2.90
2017-12-02T08:04:27.291Z,2.57
2017-12-02T08:06:59.140Z,2.93
2017-12-02T08:09:30.856Z,2.63
2017-12-02T08:12:03.005Z,2.67
2017-12-02T08:14:37.559Z,2.73
2017-12-02T08:17:13.939Z,2.67
2017-12-02T08:19:45.469Z,2.80
2017-12-02T08:22:17.934Z,2.30
2017-12-02T08:24:57.636Z,2.40
2017-12-02T08:27:39.257Z,2.43
2017-12-02T08:30:13.693Z,2.87
2017-12-02T08:32:48.207Z,2.40
2017-12-02T08:35:22.185Z,2.57
2017-12-02T08:37:57.380Z,3.07
2017-12-02T08:40:33.188Z,2.60
2017-12-02T08:43:12.442Z,2.67
2017-12-02T08:45:47.133Z,2.73
2017-12-02T08:48:19.354Z,2.40
2017-12-02T08:50:51.614Z,3.33
2017-12-02T08:53:27.752Z,2.40
2017-12-02T08:55:59.915Z,2.90
2017-12-02T08:58:34.131Z,2.50
2017-12-02T09:01:08.589Z,2.70
2017-12-02T09:03:43.839Z,2.67
2017-12-02T09:06:17.009Z,2.53
2017-12-02T09:08:48.971Z,2.40
2017-12-02T09:11:27.464Z,2.30
2017-12-02T09:14:03.183Z,2.57
2017-12-02T09:16:37.617Z,2.50
2017-12-02T09:19:16.391Z,2.40
2017-12-02T09:21:51.013Z,2.57
2017-12-02T09:24:23.111Z,2.50
2017-12-02T09:26:56.824Z,2.40
2017-12-02T09:29:30.618Z,2.53
2017-12-02T09:32:06.394Z,2.40
2017-12-02T09:34:41.271Z,2.63
2017-12-02T09:37:16.875Z,2.67
2017-12-02T09:39:51.118Z,2.90
2017-12-02T09:42:27.784Z,2.37
2017-12-02T09:45:06.443Z,2.97
2017-12-02T09:47:42.103Z,2.50
2017-12-02T09:50:19.268Z,2.33
2017-12-02T09:52:55.104Z,2.40
2017-12-02T09:55:27.796Z,2.20
2017-12-02T09:58:00.927Z,2.53
2017-12-02T10:00:35.386Z,2.20
2017-12-02T10:03:13.265Z,2.30
2017-12-02T10:08:53.183Z,2.03
2017-12-02T10:11:26.940Z,2.60
2017-12-02T10:13:59.757Z,2.37
2017-12-02T10:16:31.725Z,2.10
2017-12-02T10:19:04.321Z,2.50
2017-12-02T10:21:38.075Z,2.20
2017-12-02T10:24:12.908Z,2.20
2017-12-02T10:26:46.495Z,2.10
2017-12-02T10:29:19.060Z,2.40
2017-12-02T10:31:52.930Z,2.40
2017-12-02T10:34:26.554Z,2.40
2017-12-02T10:36:58.224Z,2.63
2017-12-02T10:39:31.885Z,2.70
2017-12-02T10:42:04.192Z,2.93
2017-12-02T10:44:36.574Z,2.30
2017-12-02T10:47:12.653Z,2.20
2017-12-02T10:49:45.077Z,2.30
2017-12-02T10:52:20.416Z,2.53
2017-12-02T10:54:53.232Z,3.10
2017-12-02T10:57:25.264Z,2.70
2017-12-02T10:59:58.699Z,2.50
2017-12-02T11:02:32.396Z,2.50
2017-12-02T11:05:11.735Z,2.43
2017-12-02T11:07:45.723Z,2.40
2017-12-02T11:10:18.254Z,2.90
2017-12-02T11:12:49.755Z,2.47
2017-12-02T11:15:21.375Z,2.27
2017-12-02T11:17:53.764Z,2.20
2017-12-02T11:20:33.708Z,2.80
2017-12-02T11:23:09.768Z,2.50
2017-12-02T11:25:44.025Z,1.93
2017-12-02T11:28:16.688Z,2.17
2017-12-02T11:30:49.137Z,2.20
2017-12-02T11:33:22.310Z,2.37
2017-12-02T11:35:55.925Z,2.13
2017-12-02T11:38:27.686Z,2.30
2017-12-02T11:40:59.576Z,2.60
2017-12-02T11:43:33.384Z,2.20
2017-12-02T11:46:09.657Z,2.70
2017-12-02T11:48:41.526Z,2.30
2017-12-02T11:51:16.582Z,2.40
2017-12-02T11:53:49.076Z,2.57
2017-12-02T11:56:24.327Z,2.10
2017-12-02T11:58:57.014Z,2.20
2017-12-02T12:01:37.984Z,2.80
2017-12-02T12:04:15.996Z,2.10
2017-12-02T12:06:48.692Z,2.20
2017-12-02T12:09:20.934Z,1.90
2017-12-02T12:11:55.334Z,2.13
2017-12-02T12:14:26.873Z,1.90
2017-12-02T12:16:58.209Z,2.20
2017-12-02T12:19:31.880Z,1.70
2017-12-02T12:22:03.572Z,2.10
2017-12-02T12:24:36.784Z,1.83
2017-12-02T12:27:11.417Z,1.90
2017-12-02T12:29:43.289Z,2.10
2017-12-02T12:32:14.695Z,1.87
2017-12-02T12:34:46.234Z,1.97
2017-12-02T12:37:19.732Z,1.70
2017-12-02T12:39:51.431Z,2.00
2017-12-02T12:42:24.188Z,2.33
2017-12-02T12:47:41.622Z,1.53
2017-12-02T12:50:24.154Z,1.90
2017-12-02T12:52:55.709Z,1.70
2017-12-02T12:55:27.013Z,1.80
2017-12-02T12:57:59.779Z,1.60
2017-12-02T13:00:32.919Z,2.00
2017-12-02T13:03:07.530Z,2.00
2017-12-02T13:05:40.790Z,1.73
2017-12-02T13:08:15.680Z,1.90
2017-12-02T13:10:47.628Z,1.87
2017-12-02T13:13:19.313Z,1.47
2017-12-02T13:15:52.395Z,1.40
2017-12-02T13:18:40.737Z,1.53
2017-12-02T13:21:13.475Z,1.80
2017-12-02T13:23:45.081Z,1.90
2017-12-02T13:26:17.134Z,1.83
2017-12-02T13:28:48.704Z,1.47
2017-12-02T13:31:19.993Z,1.67
2017-12-02T13:33:51.533Z,1.80
2017-12-02T13:36:23.280Z,1.97
2017-12-02T13:38:55.093Z,1.57
2017-12-02T13:41:27.012Z,1.40
2017-12-02T13:43:59.494Z,1.77
2017-12-02T13:46:31.326Z,2.10
2017-12-02T13:49:02.537Z,2.37
2017-12-02T13:51:35.401Z,2.40
2017-12-02T13:54:06.874Z,1.80
2017-12-02T13:56:39.343Z,2.50
2017-12-02T13:59:15.570Z,2.10
2017-12-02T14:02:10.330Z,2.40
2017-12-02T14:04:42.530Z,2.40
2017-12-02T14:07:14.074Z,2.27
2017-12-02T14:09:49.014Z,2.50
2017-12-02T14:12:46.904Z,2.10
2017-12-02T14:15:24.034Z,2.13
2017-12-02T14:17:58.169Z,1.90
2017-12-02T14:20:32.589Z,2.40
2017-12-02T14:23:05.225Z,2.53
2017-12-02T14:25:45.023Z,2.63
2017-12-02T14:28:17.652Z,2.20
2017-12-02T14:30:49.327Z,2.07
2017-12-02T14:33:20.937Z,1.87
2017-12-02T14:35:53.748Z,2.10
2017-12-02T14:38:25.930Z,2.23
2017-12-02T14:40:57.582Z,2.07
2017-12-02T14:43:28.813Z,2.10
2017-12-02T14:46:00.255Z,1.30
2017-12-02T14:48:33.136Z,1.53
2017-12-02T14:51:06.534Z,1.73
2017-12-02T14:53:38.621Z,1.83
2017-12-02T14:56:13.805Z,1.67
2017-12-02T14:58:45.434Z,1.40
2017-12-02T15:01:17.057Z,1.70
2017-12-02T15:03:50.004Z,1.43
2017-12-02T15:06:21.545Z,1.90
2017-12-02T15:08:54.105Z,1.87
2017-12-02T15:11:26.583Z,2.20
2017-12-02T15:13:59.341Z,1.80
2017-12-02T15:16:31.057Z,1.60
2017-12-02T15:19:02.833Z,2.10
2017-12-02T15:21:34.465Z,1.73
2017-12-02T15:24:08.446Z,1.90
2017-12-02T15:26:40.720Z,2.50
2017-12-02T15:29:14.052Z,1.70
2017-12-02T15:31:46.277Z,1.80
2017-12-02T15:34:57.077Z,1.97
2017-12-02T15:37:28.915Z,1.73
2017-12-02T15:40:00.435Z,2.00
2017-12-02T15:42:32.611Z,2.13
2017-12-02T15:45:08.095Z,1.90
2017-12-02T15:47:39.898Z,1.77
2017-12-02T15:50:16.123Z,2.10
2017-12-02T15:52:48.745Z,1.50
2017-12-02T15:55:22.612Z,2.00
2017-12-02T15:57:55.633Z,1.77
2017-12-02T16:00:29.225Z,1.70
2017-12-02T16:03:03.862Z,1.60
2017-12-02T16:05:40.906Z,1.77
2017-12-02T16:08:14.399Z,1.97
2017-12-02T16:10:47.227Z,1.60
2017-12-02T16:13:20.095Z,1.63
2017-12-02T16:15:54.093Z,1.90
2017-12-02T16:18:26.959Z,2.20
2017-12-02T16:21:01.908Z,2.17
2017-12-02T16:23:35.333Z,1.93
2017-12-02T16:26:10.369Z,2.10
2017-12-02T16:28:54.965Z,2.07
2017-12-02T16:31:27.842Z,2.43
2017-12-02T16:33:59.880Z,2.33
2017-12-02T16:36:33.793Z,2.40
2017-12-02T16:39:06.398Z,1.77
2017-12-02T16:41:39.085Z,3.20
2017-12-02T16:44:17.400Z,1.70
2017-12-02T16:46:50.669Z,1.87
2017-12-02T16:49:24.549Z,1.70
2017-12-02T16:51:58.561Z,1.83
2017-12-02T16:54:35.545Z,1.57
2017-12-02T16:57:08.095Z,1.50
2017-12-02T16:59:40.686Z,1.50
2017-12-02T17:02:14.259Z,1.57
2017-12-02T17:04:47.746Z,1.67
2017-12-02T17:07:21.436Z,1.70
2017-12-02T17:09:53.915Z,1.30
2017-12-02T17:12:26.682Z,1.43
2017-12-02T17:14:58.027Z,1.60
2017-12-02T17:17:29.664Z,1.70
2017-12-02T17:20:02.471Z,1.93
2017-12-02T17:22:35.192Z,1.40
2017-12-02T17:25:09.797Z,1.50
2017-12-02T17:27:41.596Z,1.77
2017-12-02T17:30:16.563Z,1.77
2017-12-02T17:32:48.254Z,1.40
2017-12-02T17:35:19.635Z,1.60
2017-12-02T17:37:50.909Z,1.67
2017-12-02T17:40:23.014Z,1.80
2017-12-02T17:42:55.320Z,1.53
2017-12-02T17:45:27.096Z,1.67
2017-12-02T17:47:58.444Z,1.90
2017-12-02T17:50:30.011Z,1.90
2017-12-02T17:53:01.777Z,1.70
2017-12-02T17:55:34.332Z,1.57
2017-12-02T17:58:07.226Z,1.90
2017-12-02T18:00:39.771Z,1.60
2017-12-02T18:03:13.601Z,1.30
2017-12-02T18:05:45.148Z,1.30
2017-12-02T18:08:17.000Z,1.13
2017-12-02T18:10:48.368Z,1.50
2017-12-02T18:13:20.171Z,1.40
2017-12-02T18:15:51.554Z,2.10
2017-12-02T18:18:24.415Z,1.30
2017-12-02T18:20:59.734Z,1.57
2017-12-02T18:23:31.345Z,1.70
2017-12-02T18:26:03.215Z,1.47
2017-12-02T18:28:36.115Z,1.60
2017-12-02T18:31:11.324Z,1.40
2017-12-02T18:33:43.559Z,1.83
2017-12-02T18:36:15.981Z,1.83
2017-12-02T18:38:48.644Z,1.97
2017-12-02T18:41:21.086Z,1.70
2017-12-02T18:43:54.755Z,1.63
2017-12-02T18:46:26.391Z,1.50
2017-12-02T18:48:59.374Z,2.03
2017-12-02T18:51:30.469Z,1.87
2017-12-02T18:54:03.946Z,1.70
2017-12-02T18:56:36.544Z,2.00
2017-12-02T18:59:12.030Z,2.10
2017-12-02T19:01:43.337Z,2.10
2017-12-02T19:04:15.007Z,1.90
2017-12-02T19:06:47.720Z,2.07
2017-12-02T19:09:19.554Z,1.47
2017-12-02T19:11:51.278Z,2.00
2017-12-02T19:14:25.539Z,1.90
2017-12-02T19:16:57.672Z,1.90
2017-12-02T19:19:34.025Z,1.60
2017-12-02T19:22:08.117Z,1.70
2017-12-02T19:24:41.904Z,2.07
2017-12-02T19:27:14.317Z,1.50
2017-12-02T19:29:46.346Z,1.80
2017-12-02T19:32:22.958Z,1.70
2017-12-02T19:34:54.826Z,1.60
2017-12-02T19:37:26.602Z,2.00
2017-12-02T19:40:01.359Z,1.83
2017-12-02T19:42:33.294Z,1.30
2017-12-02T19:45:13.814Z,1.50
2017-12-02T19:47:47.794Z,1.90
2017-12-02T19:50:21.230Z,1.77
2017-12-02T19:57:25.909Z,1.73
2017-12-02T20:00:22.091Z,1.50
2017-12-02T20:02:54.063Z,1.63
2017-12-02T20:05:25.910Z,1.37
2017-12-02T20:07:57.502Z,1.50
2017-12-02T20:10:30.725Z,1.50
2017-12-02T20:13:07.348Z,1.70
2017-12-02T20:15:38.806Z,1.60
2017-12-02T20:18:59.514Z,1.50
2017-12-02T20:28:28.072Z,1.57
2017-12-02T20:37:30.821Z,1.30
2017-12-02T20:40:54.065Z,1.67
2017-12-02T20:43:26.078Z,1.53
2017-12-02T20:45:58.425Z,1.70
2017-12-02T20:48:30.462Z,1.63
2017-12-02T20:51:01.912Z,1.50
2017-12-02T20:53:33.652Z,1.30
2017-12-02T20:56:08.337Z,1.80
2017-12-02T20:58:43.421Z,1.60
2017-12-02T21:01:15.404Z,1.60
2017-12-02T21:03:47.203Z,1.23
2017-12-02T21:06:18.821Z,1.70
2017-12-02T21:08:50.411Z,1.60
2017-12-02T21:11:22.160Z,2.10
2017-12-02T21:13:54.028Z,1.60
2017-12-02T21:16:25.733Z,1.70
2017-12-02T21:18:57.642Z,1.67
2017-12-02T21:21:28.894Z,1.90
2017-12-02T21:24:02.050Z,1.57
2017-12-02T21:26:35.195Z,1.60
2017-12-02T21:29:09.878Z,1.97
2017-12-02T21:31:42.291Z,1.90
2017-12-02T21:34:13.966Z,1.83
2017-12-02T21:36:46.198Z,1.80
2017-12-02T21:39:17.851Z,1.80
2017-12-02T21:41:48.951Z,1.50
2017-12-02T21:44:21.574Z,1.60
2017-12-02T21:46:54.142Z,2.07
2017-12-02T21:49:26.297Z,1.73
2017-12-02T21:51:58.684Z,1.80
2017-12-02T21:54:32.351Z,1.60
2017-12-02T21:57:06.654Z,1.63
2017-12-02T21:59:38.823Z,1.60
2017-12-02T22:02:13.512Z,1.80
2017-12-02T22:04:45.314Z,1.37
2017-12-02T22:07:16.692Z,1.70
2017-12-02T22:09:49.003Z,1.30
2017-12-02T22:12:20.924Z,1.40
2017-12-02T22:14:52.507Z,1.57
2017-12-02T22:17:24.831Z,1.40
2017-12-02T22:19:56.574Z,1.70
2017-12-02T22:22:27.605Z,2.10
2017-12-02T22:24:59.604Z,1.77
2017-12-02T22:27:31.482Z,1.57
2017-12-02T22:30:07.088Z,1.30
2017-12-02T22:32:38.951Z,1.80
2017-12-02T22:35:11.259Z,1.90
2017-12-02T22:37:42.739Z,1.60
2017-12-02T22:40:15.484Z,1.50
2017-12-02T22:42:47.104Z,1.70
2017-12-02T22:45:18.755Z,1.50
2017-12-02T22:47:51.027Z,1.90
2017-12-02T22:50:24.838Z,1.33
2017-12-02T22:52:56.322Z,2.27
2017-12-02T22:55:27.593Z,1.50
2017-12-02T22:57:59.305Z,2.00
2017-12-02T23:00:35.586Z,1.60
2017-12-02T23:03:07.078Z,1.60
2017-12-02T23:05:42.660Z,1.60
2017-12-02T23:08:13.910Z,1.63
2017-12-02T23:10:46.329Z,1.97
2017-12-02T23:13:18.859Z,1.50
2017-12-02T23:15:53.728Z,1.87
2017-12-02T23:18:25.729Z,1.90
2017-12-02T23:20:57.321Z,1.73
2017-12-02T23:23:28.580Z,1.57
2017-12-02T23:26:00.420Z,1.43
2017-12-02T23:28:31.751Z,1.60
2017-12-02T23:31:05.727Z,1.90
2017-12-02T23:33:39.117Z,1.90
2017-12-02T23:36:12.598Z,1.60
2017-12-02T23:38:43.757Z,1.40
2017-12-02T23:41:15.882Z,1.60
2017-12-02T23:43:46.832Z,1.97
2017-12-02T23:46:18.676Z,1.60
2017-12-02T23:48:50.194Z,1.53
2017-12-02T23:51:21.476Z,1.40
2017-12-02T23:53:52.690Z,1.33
2017-12-02T23:56:25.319Z,1.20
2017-12-02T23:58:56.569Z,1.30
